Time;durP1;ratioP1;P1;durP2;ratioP2;P2;SDS_P1;SDS_P2;PMS_P1;PMS_P2;Temp;Humidity;BMP_temperature;BMP_pressure;BME280_temperature;BME280_humidity;BME280_pressure;Samples;Min_cycle;Max_cycle;Signal;HPM_P1;HPM_P2
2022/11/10 00:00:44;;;;;;;6.32;2.70;;;;;;;;;;5095910;28;20043;-88
2022/11/10 00:03:30;;;;;;;9.32;3.85;;;;;;;;;;5080048;28;20043;-89
2022/11/10 00:06:16;;;;;;;8.05;2.58;;;;;;;;;;5096829;28;20088;-88
2022/11/10 00:09:09;;;;;;;9.88;2.88;;;;;;;;;;5096316;28;20038;-88
2022/11/10 00:12:00;;;;;;;11.13;3.20;;;;;;;;;;5094087;28;20036;-88
2022/11/10 00:18:01;;;;;;;7.43;2.80;;;;;;;;;;5093925;28;20046;-89
2022/11/10 00:20:48;;;;;;;8.10;2.60;;;;;;;;;;5093987;28;20079;-90
2022/11/10 00:23:34;;;;;;;8.85;2.85;;;;;;;;;;5095966;28;20123;-89
2022/11/10 00:29:40;;;;;;;15.48;3.13;;;;;;;;;;5094730;28;20051;-89
2022/11/10 00:32:26;;;;;;;9.48;3.40;;;;;;;;;;5092913;28;20036;-89
2022/11/10 00:35:12;;;;;;;8.52;3.15;;;;;;;;;;5092660;28;20612;-90
2022/11/10 00:37:58;;;;;;;8.75;3.05;;;;;;;;;;5094698;28;20482;-88
2022/11/10 00:40:44;;;;;;;7.30;3.20;;;;;;;;;;5096402;28;20044;-91
2022/11/10 00:43:30;;;;;;;10.15;3.22;;;;;;;;;;5091916;28;20149;-89
2022/11/10 00:46:18;;;;;;;7.72;3.40;;;;;;;;;;5089018;28;20052;-89
2022/11/10 00:49:04;;;;;;;5.70;3.28;;;;;;;;;;5093877;28;20048;-89
2022/11/10 00:51:50;;;;;;;16.13;4.43;;;;;;;;;;5078589;28;20597;-89
2022/11/10 00:54:36;;;;;;;11.20;3.00;;;;;;;;;;5094945;28;20503;-89
2022/11/10 00:57:22;;;;;;;8.52;3.10;;;;;;;;;;5094823;28;20376;-89
2022/11/10 01:00:08;;;;;;;8.95;3.50;;;;;;;;;;5094532;28;20148;-88
2022/11/10 01:02:54;;;;;;;9.63;3.70;;;;;;;;;;5088680;28;20094;-88
2022/11/10 01:05:41;;;;;;;11.50;3.30;;;;;;;;;;5100740;28;20047;-88
2022/11/10 01:08:26;;;;;;;11.55;3.13;;;;;;;;;;5101032;28;20121;-87
2022/11/10 01:11:22;;;;;;;6.72;3.03;;;;;;;;;;5098738;27;20059;-88
2022/11/10 01:14:08;;;;;;;8.13;3.40;;;;;;;;;;5098806;28;20032;-88
2022/11/10 01:16:54;;;;;;;10.27;3.35;;;;;;;;;;5100251;28;20039;-88
2022/11/10 01:19:46;;;;;;;10.80;3.13;;;;;;;;;;5083031;28;20516;-88
2022/11/10 01:22:57;;;;;;;8.05;3.45;;;;;;;;;;5098015;28;20036;-89
2022/11/10 01:25:42;;;;;;;14.98;3.28;;;;;;;;;;5084921;28;20086;-89
2022/11/10 01:28:28;;;;;;;8.02;3.03;;;;;;;;;;5097881;28;20048;-89
2022/11/10 01:31:16;;;;;;;7.93;3.00;;;;;;;;;;5101062;28;20031;-90
2022/11/10 01:34:02;;;;;;;9.95;2.67;;;;;;;;;;5095755;28;20453;-88
2022/11/10 01:36:48;;;;;;;6.38;2.75;;;;;;;;;;5100018;28;20526;-88
2022/11/10 01:39:34;;;;;;;13.32;3.40;;;;;;;;;;5101402;28;20040;-89
2022/11/10 01:42:25;;;;;;;13.65;3.22;;;;;;;;;;5099838;28;20036;-90
2022/11/10 01:45:21;;;;;;;11.57;3.13;;;;;;;;;;5097107;28;20166;-88
2022/11/10 01:48:24;;;;;;;8.65;3.50;;;;;;;;;;5099728;28;20036;-89
2022/11/10 01:51:23;;;;;;;8.68;3.08;;;;;;;;;;5096067;28;20519;-89
2022/11/10 01:54:15;;;;;;;7.82;3.55;;;;;;;;;;5099258;28;20066;-89
2022/11/10 01:57:05;;;;;;;12.75;3.38;;;;;;;;;;5100407;28;20052;-89
2022/11/10 01:59:56;;;;;;;7.13;2.95;;;;;;;;;;5099207;28;20119;-89
2022/11/10 02:03:02;;;;;;;8.18;2.70;;;;;;;;;;5100243;28;20185;-90
2022/11/10 02:05:49;;;;;;;7.90;2.72;;;;;;;;;;5099979;28;20558;-88
2022/11/10 02:08:36;;;;;;;10.15;3.10;;;;;;;;;;5098565;28;20032;-89
2022/11/10 02:11:53;;;;;;;7.25;2.92;;;;;;;;;;5099101;28;20035;-89
2022/11/10 02:14:46;;;;;;;6.40;2.88;;;;;;;;;;5086573;27;20059;-89
2022/11/10 02:17:44;;;;;;;7.57;2.83;;;;;;;;;;5098878;28;20043;-87
2022/11/10 02:20:36;;;;;;;9.93;3.03;;;;;;;;;;5099551;28;20180;-89
2022/11/10 02:23:28;;;;;;;9.68;2.92;;;;;;;;;;5098902;28;20040;-89
2022/11/10 02:26:18;;;;;;;6.28;2.60;;;;;;;;;;5099654;28;20127;-89
2022/11/10 02:29:10;;;;;;;9.57;2.55;;;;;;;;;;5098221;28;20051;-89
2022/11/10 02:31:56;;;;;;;;;;;;;;;;;;5100672;28;20130;-88
2022/11/10 02:34:42;;;;;;;10.43;2.95;;;;;;;;;;5095947;28;19923;-89
2022/11/10 02:37:28;;;;;;;7.57;2.80;;;;;;;;;;5098218;28;20055;-90
2022/11/10 02:40:20;;;;;;;6.20;2.58;;;;;;;;;;5098450;28;20044;-89
2022/11/10 02:43:17;;;;;;;14.50;3.30;;;;;;;;;;5098776;28;20028;-89
2022/11/10 02:46:08;;;;;;;6.95;3.47;;;;;;;;;;5099802;28;20185;-89
2022/11/10 02:49:00;;;;;;;13.60;3.75;;;;;;;;;;5092739;28;20131;-89
2022/11/10 02:51:46;;;;;;;11.23;3.13;;;;;;;;;;5098451;28;20040;-89
2022/11/10 02:54:32;;;;;;;9.02;3.33;;;;;;;;;;5098261;28;20193;-88
2022/11/10 02:57:18;;;;;;;12.10;3.67;;;;;;;;;;5099900;28;20039;-89
2022/11/10 03:00:05;;;;;;;14.05;3.28;;;;;;;;;;5098200;28;20044;-89
2022/11/10 03:03:17;;;;;;;15.07;3.20;;;;;;;;;;5085654;28;20540;-89
2022/11/10 03:06:04;;;;;;;11.85;3.47;;;;;;;;;;5094158;28;21196;-88
2022/11/10 03:08:50;;;;;;;9.23;2.80;;;;;;;;;;5095511;27;20135;-89
2022/11/10 03:11:44;;;;;;;11.25;4.18;;;;;;;;;;5099911;28;20034;-89
2022/11/10 03:14:30;;;;;;;14.95;3.90;;;;;;;;;;5096679;28;20047;-88
2022/11/10 03:17:22;;;;;;;7.72;3.40;;;;;;;;;;5099482;28;20079;-88
2022/11/10 03:20:15;;;;;;;9.73;3.65;;;;;;;;;;5097494;28;20047;-89
2022/11/10 03:23:02;;;;;;;7.07;3.60;;;;;;;;;;5098694;28;20040;-89
2022/11/10 03:25:48;;;;;;;10.85;4.28;;;;;;;;;;5097753;27;20037;-89
2022/11/10 03:28:34;;;;;;;9.15;3.88;;;;;;;;;;5098855;28;20113;-88
2022/11/10 03:31:20;;;;;;;13.48;4.10;;;;;;;;;;5093543;28;20044;-89
2022/11/10 03:34:06;;;;;;;8.05;3.95;;;;;;;;;;5091379;28;20036;-89
2022/11/10 03:37:17;;;;;;;10.55;3.95;;;;;;;;;;5097271;28;20055;-89
2022/11/10 03:40:04;;;;;;;11.30;4.00;;;;;;;;;;5083213;28;20047;-89
2022/11/10 03:42:50;;;;;;;11.80;4.35;;;;;;;;;;5099126;28;20048;-89
2022/11/10 03:45:45;;;;;;;12.38;4.80;;;;;;;;;;5095778;28;20047;-89
2022/11/10 03:48:32;;;;;;;9.23;4.22;;;;;;;;;;5097269;28;20041;-89
2022/11/10 03:51:44;;;;;;;11.43;4.55;;;;;;;;;;5084558;28;20023;-89
2022/11/10 03:54:30;;;;;;;12.82;4.53;;;;;;;;;;5093026;28;20042;-89
2022/11/10 03:57:48;;;;;;;9.63;4.78;;;;;;;;;;5099127;28;20031;-89
2022/11/10 04:00:34;;;;;;;13.60;4.95;;;;;;;;;;5096409;28;20036;-89
2022/11/10 04:03:20;;;;;;;10.38;5.32;;;;;;;;;;5093725;28;20051;-89
2022/11/10 04:09:16;;;;;;;12.60;5.40;;;;;;;;;;5095771;28;20495;-89
2022/11/10 04:15:57;;;;;;;14.15;4.70;;;;;;;;;;5098160;27;20039;-89
2022/11/10 04:21:54;;;;;;;14.07;6.25;;;;;;;;;;5096282;28;20169;-89
2022/11/10 04:24:40;;;;;;;16.00;6.43;;;;;;;;;;5095243;28;20051;-89
2022/11/10 04:27:32;;;;;;;18.70;7.35;;;;;;;;;;5096725;28;20887;-90
2022/11/10 04:30:18;;;;;;;12.43;6.28;;;;;;;;;;5095251;28;20498;-89
2022/11/10 04:33:10;;;;;;;16.17;7.07;;;;;;;;;;5093362;28;20031;-89
2022/11/10 04:35:56;;;;;;;14.15;7.63;;;;;;;;;;5094919;28;20123;-90
2022/11/10 04:38:42;;;;;;;18.13;7.00;;;;;;;;;;5092712;28;20506;-89
2022/11/10 04:41:31;;;;;;;15.20;7.05;;;;;;;;;;5096227;28;20511;-89
2022/11/10 04:44:22;;;;;;;23.08;8.23;;;;;;;;;;5097468;28;20036;-89
2022/11/10 04:47:08;;;;;;;19.38;8.02;;;;;;;;;;5094197;28;20043;-89
2022/11/10 04:50:05;;;;;;;15.90;7.75;;;;;;;;;;5096318;28;20395;-89
2022/11/10 04:52:50;;;;;;;20.48;8.80;;;;;;;;;;5080773;28;20388;-90
2022/11/10 04:55:40;;;;;;;23.92;9.00;;;;;;;;;;5096012;28;20062;-89
2022/11/10 04:58:26;;;;;;;24.15;9.65;;;;;;;;;;5097984;28;20173;-89
2022/11/10 05:01:14;;;;;;;25.40;10.27;;;;;;;;;;5092392;28;20036;-89
2022/11/10 05:04:00;;;;;;;21.25;9.88;;;;;;;;;;5095304;28;20537;-89
2022/11/10 05:06:52;;;;;;;23.67;10.18;;;;;;;;;;5083074;28;20065;-89
2022/11/10 05:09:40;;;;;;;20.30;9.85;;;;;;;;;;5093389;28;20043;-89
2022/11/10 05:12:26;;;;;;;22.48;10.10;;;;;;;;;;5079828;28;20060;-90
2022/11/10 05:15:12;;;;;;;25.70;10.80;;;;;;;;;;5094945;28;20040;-89
2022/11/10 05:17:59;;;;;;;21.70;10.77;;;;;;;;;;5095933;28;20043;-89
2022/11/10 05:20:44;;;;;;;24.38;10.60;;;;;;;;;;5096680;28;20054;-88
2022/11/10 05:23:36;;;;;;;23.42;10.02;;;;;;;;;;5089612;28;20090;-90
2022/11/10 05:26:28;;;;;;;23.90;10.25;;;;;;;;;;5081900;28;20476;-89
2022/11/10 05:29:14;;;;;;;21.48;10.63;;;;;;;;;;5096712;28;20398;-89
2022/11/10 05:32:06;;;;;;;26.85;10.80;;;;;;;;;;5094293;28;20032;-89
2022/11/10 05:34:58;;;;;;;22.85;10.52;;;;;;;;;;5096597;28;20044;-89
2022/11/10 05:38:08;;;;;;;19.00;9.77;;;;;;;;;;5084158;28;20028;-89
2022/11/10 05:41:00;;;;;;;20.58;10.07;;;;;;;;;;5092749;28;20047;-87
2022/11/10 05:43:52;;;;;;;24.02;10.05;;;;;;;;;;5090939;28;20032;-89
2022/11/10 05:46:38;;;;;;;24.65;9.57;;;;;;;;;;5093865;28;20051;-89
2022/11/10 05:49:26;;;;;;;22.73;9.65;;;;;;;;;;5096164;28;20046;-89
2022/11/10 05:52:12;;;;;;;19.83;9.80;;;;;;;;;;5084285;28;20490;-89
2022/11/10 05:55:03;;;;;;;25.20;10.15;;;;;;;;;;5098572;28;20495;-88
2022/11/10 05:57:51;;;;;;;19.77;9.70;;;;;;;;;;5099898;27;20051;-89
2022/11/10 06:00:38;;;;;;;21.65;9.60;;;;;;;;;;5097502;28;20036;-90
2022/11/10 06:03:24;;;;;;;24.80;10.52;;;;;;;;;;5096619;28;20063;-90
2022/11/10 06:06:12;;;;;;;25.70;10.15;;;;;;;;;;5098876;28;20510;-89
2022/11/10 06:08:58;;;;;;;14.35;8.82;;;;;;;;;;5096332;27;20411;-89
2022/11/10 06:12:10;;;;;;;18.88;9.63;;;;;;;;;;5089297;28;20710;-88
2022/11/10 06:14:59;;;;;;;18.10;9.55;;;;;;;;;;5102899;27;20046;-90
2022/11/10 06:17:46;;;;;;;22.15;9.77;;;;;;;;;;5102175;28;20043;-87
2022/11/10 06:20:32;;;;;;;19.27;8.88;;;;;;;;;;5101486;28;20074;-88
2022/11/10 06:23:23;;;;;;;23.83;9.63;;;;;;;;;;5104628;28;20039;-88
2022/11/10 06:26:10;;;;;;;18.00;8.95;;;;;;;;;;5100574;28;20036;-89
2022/11/10 06:29:02;;;;;;;17.95;9.27;;;;;;;;;;5082780;28;20035;-87
2022/11/10 06:31:48;;;;;;;17.10;8.77;;;;;;;;;;5093404;28;20039;-85
2022/11/10 06:34:34;;;;;;;22.90;9.10;;;;;;;;;;5097349;28;20036;-88
2022/11/10 06:37:20;;;;;;;15.18;8.15;;;;;;;;;;5097901;28;20499;-86
2022/11/10 06:40:08;;;;;;;21.38;8.23;;;;;;;;;;5083073;28;20411;-89
2022/11/10 06:42:55;;;;;;;22.98;8.45;;;;;;;;;;5081745;28;20028;-88
2022/11/10 06:45:46;;;;;;;17.17;7.90;;;;;;;;;;5099166;28;20040;-87
2022/11/10 06:48:40;;;;;;;24.85;8.30;;;;;;;;;;5097704;28;20036;-88
2022/11/10 06:51:31;;;;;;;18.65;8.13;;;;;;;;;;5098195;28;20047;-87
2022/11/10 06:54:22;;;;;;;20.65;7.78;;;;;;;;;;5099664;28;20059;-87
2022/11/10 06:57:08;;;;;;;18.42;8.18;;;;;;;;;;5098751;28;20054;-87
2022/11/10 07:00:21;;;;;;;15.30;7.68;;;;;;;;;;5099418;28;20118;-87
2022/11/10 07:03:10;;;;;;;17.15;7.45;;;;;;;;;;5097087;28;20067;-88
2022/11/10 07:05:57;;;;;;;14.70;6.57;;;;;;;;;;5093905;28;20039;-87
2022/11/10 07:08:44;;;;;;;20.20;7.68;;;;;;;;;;5099637;28;20043;-86
2022/11/10 07:11:54;;;;;;;22.80;7.63;;;;;;;;;;5098798;28;20036;-87
2022/11/10 07:14:40;;;;;;;19.95;6.97;;;;;;;;;;5098852;28;20043;-87
2022/11/10 07:17:41;;;;;;;15.02;7.15;;;;;;;;;;5093304;28;20039;-88
2022/11/10 07:20:32;;;;;;;16.02;7.05;;;;;;;;;;5098751;28;20040;-88
2022/11/10 07:23:24;;;;;;;16.60;6.28;;;;;;;;;;5099707;28;20612;-87
2022/11/10 07:26:16;;;;;;;18.05;7.13;;;;;;;;;;5096860;28;20118;-87
2022/11/10 07:29:02;;;;;;;16.15;6.63;;;;;;;;;;5097595;28;20048;-87
2022/11/10 07:31:53;;;;;;;16.23;6.35;;;;;;;;;;5090958;28;20158;-87
2022/11/10 07:34:40;;;;;;;19.08;6.45;;;;;;;;;;5096903;27;20043;-87
2022/11/10 07:37:26;;;;;;;15.25;7.13;;;;;;;;;;5094970;28;20036;-87
2022/11/10 07:40:16;;;;;;;12.77;6.50;;;;;;;;;;5097024;28;20049;-87
2022/11/10 07:43:03;;;;;;;14.23;7.05;;;;;;;;;;5097352;28;20047;-87
2022/11/10 07:45:56;;;;;;;18.15;6.95;;;;;;;;;;5096479;28;20498;-89
2022/11/10 07:48:48;;;;;;;15.48;7.80;;;;;;;;;;5095287;28;20044;-86
2022/11/10 07:51:34;;;;;;;24.08;8.13;;;;;;;;;;5095976;28;20050;-87
2022/11/10 07:54:20;;;;;;;19.15;8.00;;;;;;;;;;5094439;28;20028;-86
2022/11/10 07:57:31;;;;;;;21.95;8.18;;;;;;;;;;5089338;28;20039;-87
2022/11/10 08:00:17;;;;;;;25.80;10.32;;;;;;;;;;5096933;28;20047;-87
2022/11/10 08:03:09;;;;;;;17.17;8.20;;;;;;;;;;5093720;28;20073;-87
2022/11/10 08:05:56;;;;;;;20.63;7.68;;;;;;;;;;5092168;28;20047;-87
2022/11/10 08:08:47;;;;;;;19.58;8.35;;;;;;;;;;5093488;28;20092;-87
2022/11/10 08:11:34;;;;;;;21.55;8.38;;;;;;;;;;5092188;28;20126;-87
2022/11/10 08:14:20;;;;;;;19.85;7.63;;;;;;;;;;5078636;28;20044;-87
2022/11/10 08:17:06;;;;;;;21.90;7.65;;;;;;;;;;5090789;28;20039;-86
2022/11/10 08:20:22;;;;;;;25.10;8.68;;;;;;;;;;5094501;28;20063;-87
2022/11/10 08:23:14;;;;;;;18.05;8.45;;;;;;;;;;5094653;28;20036;-87
2022/11/10 08:26:00;;;;;;;18.50;9.32;;;;;;;;;;5096388;28;20097;-87
2022/11/10 08:28:46;;;;;;;20.70;8.90;;;;;;;;;;5094215;28;20044;-86
2022/11/10 08:31:38;;;;;;;21.63;9.43;;;;;;;;;;5091906;28;20779;-87
2022/11/10 08:34:24;;;;;;;27.55;10.32;;;;;;;;;;5093414;28;20441;-86
2022/11/10 08:37:16;;;;;;;21.42;9.32;;;;;;;;;;5092412;28;20044;-87
2022/11/10 08:40:03;;;;;;;22.20;9.02;;;;;;;;;;5090766;28;20135;-87
2022/11/10 08:42:57;;;;;;;19.33;9.32;;;;;;;;;;5092202;28;20522;-86
2022/11/10 08:45:44;;;;;;;18.73;8.85;;;;;;;;;;5094644;28;20118;-87
2022/11/10 08:48:36;;;;;;;27.17;9.02;;;;;;;;;;5090718;28;20174;-87
2022/11/10 08:51:22;;;;;;;24.25;9.10;;;;;;;;;;5090469;28;20085;-86
2022/11/10 08:54:08;;;;;;;22.95;9.38;;;;;;;;;;5094405;28;20032;-87
2022/11/10 08:56:54;;;;;;;26.70;9.05;;;;;;;;;;5091666;28;20031;-86
2022/11/10 08:59:40;;;;;;;25.08;9.68;;;;;;;;;;5090639;28;20158;-87
2022/11/10 09:02:26;;;;;;;31.25;9.82;;;;;;;;;;5075931;28;20040;-88
2022/11/10 09:05:12;;;;;;;19.42;8.98;;;;;;;;;;5089931;28;20071;-86
2022/11/10 09:08:04;;;;;;;21.67;9.80;;;;;;;;;;5091220;28;20035;-87
2022/11/10 09:10:50;;;;;;;22.42;9.40;;;;;;;;;;5092948;28;20043;-87
2022/11/10 09:13:36;;;;;;;23.83;9.43;;;;;;;;;;5092599;28;20040;-88
2022/11/10 09:16:28;;;;;;;28.48;9.20;;;;;;;;;;5093372;28;20028;-87
2022/11/10 09:19:14;;;;;;;21.15;9.05;;;;;;;;;;5093012;28;20047;-87
2022/11/10 09:22:25;;;;;;;18.92;9.13;;;;;;;;;;5093285;28;20036;-88
2022/11/10 09:25:19;;;;;;;29.95;10.32;;;;;;;;;;5096737;28;20371;-87
2022/11/10 09:28:12;;;;;;;27.88;11.02;;;;;;;;;;5094840;28;20039;-87
2022/11/10 09:30:58;;;;;;;22.05;9.90;;;;;;;;;;5094143;28;20043;-86
2022/11/10 09:33:45;;;;;;;24.73;9.52;;;;;;;;;;5096334;28;20035;-87
2022/11/10 09:36:33;;;;;;;19.38;8.75;;;;;;;;;;5066537;28;20445;-86
2022/11/10 09:39:20;;;;;;;21.90;9.13;;;;;;;;;;5093065;28;20151;-87
2022/11/10 09:42:33;;;;;;;23.45;9.40;;;;;;;;;;5091695;28;20046;-87
2022/11/10 09:45:22;;;;;;;21.73;9.02;;;;;;;;;;5078817;28;20047;-87
2022/11/10 09:48:23;;;;;;;23.25;9.27;;;;;;;;;;5098851;28;20039;-87
2022/11/10 09:51:17;;;;;;;22.75;9.73;;;;;;;;;;5094719;28;20089;-87
2022/11/10 09:54:19;;;;;;;20.60;8.70;;;;;;;;;;5097665;28;20043;-87
2022/11/10 09:57:15;;;;;;;20.48;8.52;;;;;;;;;;5094037;28;20028;-87
2022/11/10 10:00:00;;;;;;;20.95;9.13;;;;;;;;;;5095916;28;20057;-87
2022/11/10 10:03:17;;;;;;;28.73;8.80;;;;;;;;;;5094559;28;20031;-88
2022/11/10 10:06:30;;;;;;;21.27;8.48;;;;;;;;;;5097229;28;20028;-87
2022/11/10 10:10:08;;;;;;;20.55;8.80;;;;;;;;;;5097573;28;20054;-87
2022/11/10 10:13:32;;;;;;;16.08;7.70;;;;;;;;;;5096471;28;20111;-87
2022/11/10 10:16:59;;;;;;;;;;;;;;;;;;5094164;28;20078;-87
2022/11/10 10:20:12;;;;;;;16.92;7.05;;;;;;;;;;5097051;28;19947;-87
2022/11/10 10:23:12;;;;;;;17.13;8.43;;;;;;;;;;5096186;28;20036;-88
2022/11/10 10:25:58;;;;;;;19.00;8.27;;;;;;;;;;5094962;28;20039;-87
2022/11/10 10:28:46;;;;;;;21.85;7.97;;;;;;;;;;5097452;28;20059;-87
2022/11/10 10:31:41;;;;;;;16.90;7.05;;;;;;;;;;5097481;28;20040;-87
2022/11/10 10:34:35;;;;;;;17.05;7.50;;;;;;;;;;5095076;28;20036;-87
2022/11/10 10:37:56;;;;;;;24.88;8.40;;;;;;;;;;5097085;28;20055;-87
2022/11/10 10:41:14;;;;;;;20.67;8.15;;;;;;;;;;5092938;28;20115;-87
2022/11/10 10:44:14;;;;;;;19.13;7.53;;;;;;;;;;5095947;28;20507;-87
2022/11/10 10:47:05;;;;;;;25.27;7.43;;;;;;;;;;5091601;28;20040;-87
2022/11/10 10:49:50;;;;;;;28.20;7.40;;;;;;;;;;5095009;28;20055;-87
2022/11/10 10:52:42;;;;;;;15.38;7.18;;;;;;;;;;5089268;28;20047;-87
2022/11/10 10:55:29;;;;;;;21.95;7.43;;;;;;;;;;5094844;28;20040;-87
2022/11/10 10:58:25;;;;;;;18.13;7.90;;;;;;;;;;5091378;28;20040;-88
2022/11/10 11:01:15;;;;;;;17.90;7.65;;;;;;;;;;5098772;28;20176;-87
2022/11/10 11:04:34;;;;;;;18.95;7.68;;;;;;;;;;5097307;28;20599;-87
2022/11/10 11:07:24;;;;;;;18.33;8.10;;;;;;;;;;5096986;28;20048;-88
2022/11/10 11:10:25;;;;;;;16.40;6.97;;;;;;;;;;5095194;28;20046;-87
2022/11/10 11:13:26;;;;;;;19.67;6.95;;;;;;;;;;5093738;28;20032;-87
2022/11/10 11:16:12;;;;;;;16.20;6.47;;;;;;;;;;5097082;28;20039;-88
2022/11/10 11:18:58;;;;;;;18.25;7.35;;;;;;;;;;5094809;28;20142;-87
2022/11/10 11:22:18;;;;;;;15.45;6.15;;;;;;;;;;5091335;28;20036;-87
2022/11/10 11:25:37;;;;;;;20.52;7.22;;;;;;;;;;5095380;28;20515;-86
2022/11/10 11:28:57;;;;;;;17.15;6.18;;;;;;;;;;5092152;28;20177;-87
2022/11/10 11:31:44;;;;;;;14.48;6.53;;;;;;;;;;5094729;28;20508;-86
2022/11/10 11:34:30;;;;;;;16.38;6.45;;;;;;;;;;5096942;28;20032;-87
2022/11/10 11:38:27;;;;;;;20.63;6.45;;;;;;;;;;5097254;28;20031;-87
2022/11/10 11:41:37;;;;;;;17.65;6.30;;;;;;;;;;4979348;28;20054;-87
2022/11/10 11:44:50;;;;;;;17.98;5.95;;;;;;;;;;4978691;28;20069;-87
2022/11/10 11:48:13;;;;;;;;;;;;;;;;;;4976315;28;20632;-87
2022/11/10 11:51:45;;;;;;;18.63;5.55;;;;;;;;;;4979039;28;20005;-87
2022/11/10 11:55:20;;;;;;;17.77;6.75;;;;;;;;;;4968701;28;20042;-87
2022/11/10 11:58:32;;;;;;;18.88;6.40;;;;;;;;;;4904860;29;20052;-87
2022/11/10 12:01:44;;;;;;;21.20;6.68;;;;;;;;;;4889822;29;20064;-86
2022/11/10 12:04:57;;;;;;;18.30;6.43;;;;;;;;;;4909596;29;20062;-88
2022/11/10 12:08:11;;;;;;;29.20;7.30;;;;;;;;;;4906680;29;20509;-88
2022/11/10 12:11:11;;;;;;;19.15;5.82;;;;;;;;;;4905150;29;20063;-86
2022/11/10 12:14:46;;;;;;;16.85;6.45;;;;;;;;;;4907731;29;20051;-87
2022/11/10 12:17:52;;;;;;;14.60;5.88;;;;;;;;;;4935015;28;20665;-87
2022/11/10 12:21:22;;;;;;;15.05;5.47;;;;;;;;;;5003488;28;20040;-86
2022/11/10 12:24:50;;;;;;;14.13;5.28;;;;;;;;;;4988983;28;20033;-87
2022/11/10 12:27:42;;;;;;;16.65;5.38;;;;;;;;;;5002314;28;20046;-87
2022/11/10 12:30:40;;;;;;;11.98;4.88;;;;;;;;;;4996937;28;20050;-88
2022/11/10 12:33:33;;;;;;;20.65;5.50;;;;;;;;;;5014142;28;20054;-87
2022/11/10 12:36:50;;;;;;;10.43;4.85;;;;;;;;;;5094320;28;20083;-87
2022/11/10 12:39:50;;;;;;;13.60;4.97;;;;;;;;;;5093465;28;20174;-87
2022/11/10 12:42:37;;;;;;;14.05;5.00;;;;;;;;;;5073539;28;20040;-87
2022/11/10 12:45:38;;;;;;;20.05;5.90;;;;;;;;;;5093232;28;20059;-87
2022/11/10 12:48:32;;;;;;;10.77;4.43;;;;;;;;;;5094921;28;20042;-87
2022/11/10 12:51:40;;;;;;;13.00;5.28;;;;;;;;;;5092801;28;20504;-88
2022/11/10 12:54:50;;;;;;;11.20;4.78;;;;;;;;;;5092626;28;20034;-87
2022/11/10 12:57:36;;;;;;;12.98;4.05;;;;;;;;;;5091872;28;20038;-86
2022/11/10 13:00:31;;;;;;;9.18;4.25;;;;;;;;;;5092042;28;20036;-87
2022/11/10 13:03:34;;;;;;;16.45;4.68;;;;;;;;;;5094415;28;20051;-88
2022/11/10 13:06:29;;;;;;;13.02;4.68;;;;;;;;;;5094817;28;20140;-87
2022/11/10 13:09:42;;;;;;;14.30;4.15;;;;;;;;;;5091762;28;20043;-87
2022/11/10 13:12:28;;;;;;;13.55;4.22;;;;;;;;;;5069707;28;20170;-87
2022/11/10 13:15:35;;;;;;;12.88;3.92;;;;;;;;;;5094146;28;20039;-87
2022/11/10 13:18:31;;;;;;;15.35;4.32;;;;;;;;;;5096951;28;20039;-86
2022/11/10 13:22:05;;;;;;;18.77;4.93;;;;;;;;;;5096045;28;21971;-86
2022/11/10 13:25:12;;;;;;;11.05;4.03;;;;;;;;;;5094298;28;20071;-86
2022/11/10 13:28:04;;;;;;;15.15;4.28;;;;;;;;;;5095087;28;20033;-87
2022/11/10 13:30:58;;;;;;;11.75;4.13;;;;;;;;;;5078836;28;20032;-88
2022/11/10 13:34:07;;;;;;;15.13;4.70;;;;;;;;;;5096353;28;20036;-87
2022/11/10 13:36:54;;;;;;;14.68;4.22;;;;;;;;;;5091008;28;20040;-87
2022/11/10 13:39:40;;;;;;;8.45;3.20;;;;;;;;;;5093235;28;20038;-87
2022/11/10 13:42:26;;;;;;;10.95;3.38;;;;;;;;;;5089879;28;20039;-87
2022/11/10 13:45:34;;;;;;;15.65;4.22;;;;;;;;;;5090975;28;20028;-87
2022/11/10 13:52:26;;;;;;;11.13;3.85;;;;;;;;;;5090012;28;20158;-88
2022/11/10 13:55:27;;;;;;;14.07;3.67;;;;;;;;;;5093120;28;20032;-88
2022/11/10 13:58:23;;;;;;;11.13;3.90;;;;;;;;;;5094872;28;20059;-87
2022/11/10 14:01:16;;;;;;;9.63;3.20;;;;;;;;;;5092663;28;20319;-88
2022/11/10 14:04:03;;;;;;;11.70;3.40;;;;;;;;;;5094747;28;20036;-87
2022/11/10 14:06:54;;;;;;;20.60;4.05;;;;;;;;;;5090007;28;20051;-87
2022/11/10 14:09:51;;;;;;;12.85;3.63;;;;;;;;;;5091657;28;20032;-89
2022/11/10 14:12:40;;;;;;;14.95;3.58;;;;;;;;;;5098176;28;20043;-88
2022/11/10 14:15:38;;;;;;;12.88;4.03;;;;;;;;;;5099051;28;20042;-90
2022/11/10 14:18:29;;;;;;;10.38;3.10;;;;;;;;;;5100353;27;20039;-89
2022/11/10 14:21:26;;;;;;;10.68;3.17;;;;;;;;;;5097774;28;20040;-89
2022/11/10 14:24:24;;;;;;;12.88;3.10;;;;;;;;;;5099983;28;20062;-89
2022/11/10 14:27:19;;;;;;;14.68;3.45;;;;;;;;;;5093144;28;20048;-88
2022/11/10 14:30:11;;;;;;;13.30;3.30;;;;;;;;;;5077428;28;20123;-87
2022/11/10 14:33:07;;;;;;;15.25;3.60;;;;;;;;;;5095389;28;20039;-89
2022/11/10 14:36:00;;;;;;;11.82;3.47;;;;;;;;;;5096469;28;20040;-88
2022/11/10 14:38:52;;;;;;;15.73;3.88;;;;;;;;;;5093607;28;20040;-89
2022/11/10 14:41:48;;;;;;;14.70;2.95;;;;;;;;;;5096688;28;20051;-87
2022/11/10 14:44:34;;;;;;;14.40;3.10;;;;;;;;;;5096984;28;20036;-88
2022/11/10 14:47:30;;;;;;;11.80;3.20;;;;;;;;;;5091649;28;20036;-88
2022/11/10 14:50:18;;;;;;;8.85;2.75;;;;;;;;;;5082771;28;20050;-88
2022/11/10 14:53:10;;;;;;;10.82;3.05;;;;;;;;;;5092731;28;20411;-88
2022/11/10 14:56:04;;;;;;;11.48;2.90;;;;;;;;;;5098048;27;20038;-87
2022/11/10 14:58:51;;;;;;;11.10;2.80;;;;;;;;;;5094163;28;20042;-88
2022/11/10 15:01:50;;;;;;;12.50;3.40;;;;;;;;;;5097151;28;20040;-88
2022/11/10 15:04:36;;;;;;;11.57;2.67;;;;;;;;;;5099386;28;20032;-89
2022/11/10 15:07:22;;;;;;;9.15;2.45;;;;;;;;;;5095074;28;20055;-88
2022/11/10 15:10:19;;;;;;;8.82;2.45;;;;;;;;;;5098177;28;21601;-89
2022/11/10 15:13:12;;;;;;;6.15;2.20;;;;;;;;;;5093951;28;20040;-88
2022/11/10 15:16:20;;;;;;;13.18;2.45;;;;;;;;;;5081862;28;20036;-88
2022/11/10 15:19:34;;;;;;;11.27;2.65;;;;;;;;;;5098057;28;20055;-88
2022/11/10 15:22:48;;;;;;;;;;;;;;;;;;5084507;28;20123;-88
2022/11/10 15:25:39;;;;;;;11.00;2.28;;;;;;;;;;5096882;28;19973;-88
2022/11/10 15:28:41;;;;;;;12.68;2.95;;;;;;;;;;5096853;28;20088;-88
2022/11/10 15:31:30;;;;;;;9.27;3.40;;;;;;;;;;5084951;28;20039;-88
2022/11/10 15:34:44;;;;;;;15.00;2.72;;;;;;;;;;5095678;28;20391;-87
2022/11/10 15:38:12;;;;;;;10.07;2.28;;;;;;;;;;5095339;28;20032;-88
2022/11/10 15:41:20;;;;;;;11.30;2.28;;;;;;;;;;5093758;28;20039;-87
2022/11/10 15:44:19;;;;;;;15.60;2.95;;;;;;;;;;5096246;28;20047;-88
2022/11/10 15:47:11;;;;;;;14.20;2.03;;;;;;;;;;5096203;28;20040;-89
2022/11/10 15:49:56;;;;;;;11.82;2.50;;;;;;;;;;5099903;28;20385;-89
2022/11/10 15:52:42;;;;;;;9.43;2.03;;;;;;;;;;5096096;28;20313;-91
2022/11/10 15:55:30;;;;;;;13.45;2.67;;;;;;;;;;5102252;28;20039;-90
2022/11/10 15:58:18;;;;;;;8.73;2.42;;;;;;;;;;5096905;28;20047;-88
2022/11/10 16:01:12;;;;;;;8.38;2.05;;;;;;;;;;5093064;28;21150;-88
2022/11/10 16:03:58;;;;;;;10.20;2.50;;;;;;;;;;5093814;28;20048;-89
2022/11/10 16:06:45;;;;;;;12.90;2.80;;;;;;;;;;5097463;28;20040;-88
2022/11/10 16:09:32;;;;;;;7.63;2.03;;;;;;;;;;5077965;28;20044;-88
2022/11/10 16:12:25;;;;;;;11.43;1.90;;;;;;;;;;5100734;28;20515;-88
2022/11/10 16:15:38;;;;;;;9.95;2.10;;;;;;;;;;5094950;28;20036;-89
2022/11/10 16:18:50;;;;;;;;;;;;;;;;;;5095841;28;20111;-88
2022/11/10 16:22:02;;;;;;;12.10;2.20;;;;;;;;;;5096040;28;20027;-89
2022/11/10 16:24:48;;;;;;;13.27;2.40;;;;;;;;;;5095670;28;20051;-88
2022/11/10 16:27:35;;;;;;;7.85;2.35;;;;;;;;;;5096805;28;20050;-88
2022/11/10 16:30:22;;;;;;;9.80;1.73;;;;;;;;;;5089582;28;20039;-89
2022/11/10 16:33:16;;;;;;;11.43;2.28;;;;;;;;;;5092482;28;20043;-87
2022/11/10 16:36:02;;;;;;;11.85;1.83;;;;;;;;;;5095906;28;20046;-88
2022/11/10 16:38:48;;;;;;;7.03;1.70;;;;;;;;;;5094537;28;20043;-89
2022/11/10 16:41:34;;;;;;;10.27;1.77;;;;;;;;;;5094630;28;20040;-89
2022/11/10 16:44:44;;;;;;;10.05;2.03;;;;;;;;;;5097234;28;20141;-89
2022/11/10 16:47:31;;;;;;;9.80;2.30;;;;;;;;;;5098137;28;20047;-89
2022/11/10 16:50:30;;;;;;;11.13;1.77;;;;;;;;;;5098105;28;20040;-88
2022/11/10 16:53:27;;;;;;;9.55;1.63;;;;;;;;;;5096284;28;20129;-89
2022/11/10 16:56:15;;;;;;;9.90;1.58;;;;;;;;;;5096657;28;20032;-88
2022/11/10 16:59:03;;;;;;;10.70;2.28;;;;;;;;;;5081763;28;20511;-88
2022/11/10 17:01:48;;;;;;;6.28;1.65;;;;;;;;;;5095220;28;20529;-89
2022/11/10 17:04:58;;;;;;;9.50;2.00;;;;;;;;;;5079444;28;20043;-89
2022/11/10 17:07:44;;;;;;;12.57;2.10;;;;;;;;;;5097644;28;20044;-89
2022/11/10 17:10:36;;;;;;;11.73;2.22;;;;;;;;;;5097295;28;20051;-88
2022/11/10 17:13:23;;;;;;;8.48;1.80;;;;;;;;;;5098835;28;20097;-89
2022/11/10 17:16:34;;;;;;;11.55;2.58;;;;;;;;;;5097032;28;20043;-90
2022/11/10 17:19:23;;;;;;;15.15;1.95;;;;;;;;;;5096133;28;20051;-90
2022/11/10 17:22:09;;;;;;;9.75;1.77;;;;;;;;;;5095052;28;20584;-87
2022/11/10 17:24:56;;;;;;;8.25;1.92;;;;;;;;;;5098574;28;20044;-90
2022/11/10 17:27:43;;;;;;;12.15;1.98;;;;;;;;;;5098915;28;20044;-89
2022/11/10 17:30:30;;;;;;;11.95;1.83;;;;;;;;;;5097475;28;20168;-88
2022/11/10 17:33:16;;;;;;;9.43;1.70;;;;;;;;;;5097432;28;20133;-89